^^
Grace C. Lehan Memorial Weather Station Historical Data
Daily Summary for October 30, 2021 Units:  Both    English   Metric
Daily Weekly Monthly Yearly
  High: Low: Average:
Temperature: 59.1 °F /  15.1 °C 47.8 °F /  8.8 °C 53.4 °F /  11.9 °C
Dew Point: 58.2 °F /  14.6 °C 44.5 °F /  6.9 °C 52.3 °F /  11.3 °C
Humidity: 97% 84% 96%
Wind Speed: 2.1mph /  3.4km/h - 0.2mph /  0.3km/h
Wind Gust: 12mph /  19.3km/h - -
Wind- - South
Pressure: 29.82 in /  1009.7 hPa 29.50 in /  998.9 hPa -
Precipitation: 0.68 in /  17.27 mm    
 
 
Tabular Data for October 30, 2021
Time Temperature Dew Point Pressure Wind Wind Speed Wind Gust Humidity Rainfall Rate (Hourly) solar
00:00 49.1 °F /  9.5 °C 44.5 °F /  6.9 °C 29.78in /  1008.4hPa ENE 2mph /  3.2km/h 10mph /  16.1km/h 84% 0.01in /  0.25mm 0 W/m2
00:09 48.8 °F /  9.3 °C 44.6 °F /  7 °C 29.77in /  1008hPa ENE 0.4mph /  0.6km/h 4mph /  6.4km/h 85.4% 0.01in /  0.25mm 0 W/m2
00:14 48.7 °F /  9.3 °C 44.7 °F /  7.1 °C 29.77in /  1008hPa NE 2.1mph /  3.4km/h 12mph /  19.3km/h 86% 0.02in /  0.51mm 0 W/m2
00:19 48.6 °F /  9.2 °C 44.6 °F /  7 °C 29.80in /  1009hPa Calm   12mph /  19.3km/h 86% 0.02in /  0.51mm 0 W/m2
00:24 48.6 °F /  9.2 °C 44.8 °F /  7.1 °C 29.80in /  1009hPa NE 0.3mph /  0.5km/h 12mph /  19.3km/h 86.9% 0.02in /  0.51mm 0 W/m2
00:29 48.6 °F /  9.2 °C 44.9 °F /  7.2 °C 29.82in /  1009.7hPa Calm   12mph /  19.3km/h 87% 0.03in /  0.76mm 0 W/m2
00:34 48.5 °F /  9.2 °C 45 °F /  7.2 °C 29.82in /  1009.7hPa Calm   12mph /  19.3km/h 87.6% 0.03in /  0.76mm 0 W/m2
00:39 48.5 °F /  9.2 °C 45.1 °F /  7.3 °C 29.81in /  1009.4hPa NE 0.1mph /  0.2km/h 2mph /  3.2km/h 88% 0.05in /  1.27mm 0 W/m2
00:44 48.5 °F /  9.2 °C 45.4 °F /  7.4 °C 29.81in /  1009.4hPa NE 1mph /  1.6km/h 4mph /  6.4km/h 88.9% 0.06in /  1.52mm 0 W/m2
00:49 48.4 °F /  9.1 °C 45.3 °F /  7.4 °C 29.80in /  1009hPa NE 0.8mph /  1.3km/h 5mph /  8km/h 89% 0.06in /  1.52mm 0 W/m2
00:54 48.3 °F /  9.1 °C 45.4 °F /  7.4 °C 29.79in /  1008.7hPa ENE 0.4mph /  0.6km/h 6mph /  9.7km/h 89.5% 0.07in /  1.78mm 0 W/m2
00:59 48.2 °F /  9 °C 45.6 °F /  7.6 °C 29.79in /  1008.7hPa ENE 0.1mph /  0.2km/h 6mph /  9.7km/h 90.7% 0.07in /  1.78mm 0 W/m2
01:04 48.1 °F /  8.9 °C 45.4 °F /  7.4 °C 29.78in /  1008.4hPa ENE 0.2mph /  0.3km/h 6mph /  9.7km/h 90.3% 0.07in /  1.78mm 0 W/m2
01:09 48 °F /  8.9 °C 45.5 °F /  7.5 °C 29.79in /  1008.7hPa ENE 0.3mph /  0.5km/h 3mph /  4.8km/h 91% 0.05in /  1.27mm 0 W/m2
01:14 47.9 °F /  8.8 °C 45.4 °F /  7.4 °C 29.79in /  1008.7hPa ENE 0.5mph /  0.8km/h 4mph /  6.4km/h 91% 0.05in /  1.27mm 0 W/m2
01:19 47.9 °F /  8.8 °C 45.5 °F /  7.5 °C 29.79in /  1008.7hPa ENE 0.3mph /  0.5km/h 4mph /  6.4km/h 91.2% 0.05in /  1.27mm 0 W/m2
01:24 47.9 °F /  8.8 °C 45.7 °F /  7.6 °C 29.79in /  1008.7hPa NE 0.5mph /  0.8km/h 5mph /  8km/h 92% 0.05in /  1.27mm 0 W/m2
01:29 47.9 °F /  8.8 °C 45.7 °F /  7.6 °C 29.79in /  1008.7hPa NE 0.1mph /  0.2km/h 5mph /  8km/h 92% 0.05in /  1.27mm 0 W/m2
01:34 47.9 °F /  8.8 °C 45.7 °F /  7.6 °C 29.79in /  1008.7hPa NE 0.1mph /  0.2km/h 5mph /  8km/h 92% 0.05in /  1.27mm 0 W/m2
01:39 47.9 °F /  8.8 °C 45.8 °F /  7.7 °C 29.79in /  1008.7hPa NE 0.8mph /  1.3km/h 7mph /  11.3km/h 92.3% 0.06in /  1.52mm 0 W/m2
01:44 47.9 °F /  8.8 °C 45.9 °F /  7.7 °C 29.79in /  1008.7hPa ENE 0.2mph /  0.3km/h 7mph /  11.3km/h 92.7% 0.07in /  1.78mm 0 W/m2
01:49 47.9 °F /  8.8 °C 46 °F /  7.8 °C 29.79in /  1008.7hPa NE 1mph /  1.6km/h 8mph /  12.9km/h 93% 0.07in /  1.78mm 0 W/m2
01:54 47.9 °F /  8.8 °C 46 °F /  7.8 °C 29.78in /  1008.4hPa ENE 0.1mph /  0.2km/h 8mph /  12.9km/h 93% 0.08in /  2.03mm 0 W/m2
01:59 47.9 °F /  8.8 °C 46 °F /  7.8 °C 29.78in /  1008.4hPa NE 1.4mph /  2.3km/h 8mph /  12.9km/h 93% 0.08in /  2.03mm 0 W/m2
02:04 47.9 °F /  8.8 °C 46 °F /  7.8 °C 29.78in /  1008.4hPa ENE 1.1mph /  1.8km/h 8mph /  12.9km/h 93% 0.08in /  2.03mm 0 W/m2
02:09 47.9 °F /  8.8 °C 46 °F /  7.8 °C 29.77in /  1008hPa ENE 1.1mph /  1.8km/h 6mph /  9.7km/h 93% 0.05in /  1.27mm 0 W/m2
02:14 47.9 °F /  8.8 °C 46.1 °F /  7.8 °C 29.77in /  1008hPa NE 0.5mph /  0.8km/h 6mph /  9.7km/h 93.6% 0.05in /  1.27mm 0 W/m2
02:19 47.8 °F /  8.8 °C 46.2 °F /  7.9 °C 29.78in /  1008.4hPa NE 0.1mph /  0.2km/h 6mph /  9.7km/h 94% 0.05in /  1.27mm 0 W/m2
02:24 47.8 °F /  8.8 °C 46.2 °F /  7.9 °C 29.78in /  1008.4hPa NE 0.2mph /  0.3km/h 6mph /  9.7km/h 94% 0.05in /  1.27mm 0 W/m2
02:29 47.8 °F /  8.8 °C 46.2 °F /  7.9 °C 29.78in /  1008.4hPa ENE 0.8mph /  1.3km/h 6mph /  9.7km/h 94% 0.05in /  1.27mm 0 W/m2
02:34 47.9 °F /  8.8 °C 46.3 °F /  7.9 °C 29.77in /  1008hPa NE 2mph /  3.2km/h 6mph /  9.7km/h 94% 0.05in /  1.27mm 0 W/m2
02:39 47.9 °F /  8.8 °C 46.3 °F /  7.9 °C 29.77in /  1008hPa ENE 0.6mph /  1km/h 6mph /  9.7km/h 94% 0.04in /  1.02mm 0 W/m2
02:44 47.9 °F /  8.8 °C 46.3 °F /  7.9 °C 29.77in /  1008hPa NE 0.2mph /  0.3km/h 6mph /  9.7km/h 94% 0.04in /  1.02mm 0 W/m2
02:49 47.9 °F /  8.8 °C 46.3 °F /  7.9 °C 29.77in /  1008hPa NNW 0.2mph /  0.3km/h 6mph /  9.7km/h 94% 0.04in /  1.02mm 0 W/m2
02:54 47.9 °F /  8.8 °C 46.3 °F /  7.9 °C 29.77in /  1008hPa ENE 0.3mph /  0.5km/h 6mph /  9.7km/h 94% 0.04in /  1.02mm 0 W/m2
02:59 47.9 °F /  8.8 °C 46.3 °F /  7.9 °C 29.77in /  1008hPa NE 0.9mph /  1.4km/h 7mph /  11.3km/h 94% 0.04in /  1.02mm 0 W/m2
03:04 47.9 °F /  8.8 °C 46.3 °F /  7.9 °C 29.76in /  1007.7hPa NE 0.2mph /  0.3km/h 7mph /  11.3km/h 94% 0.04in /  1.02mm 0 W/m2
03:09 47.9 °F /  8.8 °C 46.3 °F /  7.9 °C 29.76in /  1007.7hPa ENE 0.3mph /  0.5km/h 5mph /  8km/h 94% 0.02in /  0.51mm 0 W/m2
03:14 47.8 °F /  8.8 °C 46.2 °F /  7.9 °C 29.76in /  1007.7hPa ENE 0.9mph /  1.4km/h 5mph /  8km/h 94% 0.02in /  0.51mm 0 W/m2
03:19 47.8 °F /  8.8 °C 46.2 °F /  7.9 °C 29.75in /  1007.3hPa NE 1.1mph /  1.8km/h 6mph /  9.7km/h 94% 0.02in /  0.51mm 0 W/m2
03:24 47.8 °F /  8.8 °C 46.2 °F /  7.9 °C 29.75in /  1007.3hPa ENE 0.3mph /  0.5km/h 6mph /  9.7km/h 94.1% 0.02in /  0.51mm 0 W/m2
03:29 47.8 °F /  8.8 °C 46.4 °F /  8 °C 29.76in /  1007.7hPa ENE 0.4mph /  0.6km/h 7mph /  11.3km/h 95% 0.02in /  0.51mm 0 W/m2
03:32 47.8 °F /  8.8 °C 46.4 °F /  8 °C 29.76in /  1007.7hPa ENE 0.1mph /  0.2km/h 7mph /  11.3km/h 95% 0.02in /  0.51mm 0 W/m2
04:09 48 °F /  8.9 °C 46.6 °F /  8.1 °C 29.73in /  1006.7hPa Calm     95% 0.01in /  0.25mm 0 W/m2
04:14 48 °F /  8.9 °C 46.6 °F /  8.1 °C 29.74in /  1007hPa NW 0.5mph /  0.8km/h 6mph /  9.7km/h 95% 0.01in /  0.25mm 0 W/m2
04:19 48 °F /  8.9 °C 46.6 °F /  8.1 °C 29.74in /  1007hPa North 0.3mph /  0.5km/h 7mph /  11.3km/h 95% 0.01in /  0.25mm 0 W/m2
04:24 48 °F /  8.9 °C 46.7 °F /  8.2 °C 29.73in /  1006.7hPa NE 0.2mph /  0.3km/h 7mph /  11.3km/h 95% 0.01in /  0.25mm 0 W/m2
04:29 48 °F /  8.9 °C 46.6 °F /  8.1 °C 29.73in /  1006.7hPa North 1mph /  1.6km/h 7mph /  11.3km/h 95% 0.01in /  0.25mm 0 W/m2
04:34 48 °F /  8.9 °C 46.6 °F /  8.1 °C 29.73in /  1006.7hPa NNW 0.4mph /  0.6km/h 7mph /  11.3km/h 95% 0.01in /  0.25mm 0 W/m2
04:39 48 °F /  8.9 °C 46.7 °F /  8.2 °C 29.73in /  1006.7hPa NNW 0.1mph /  0.2km/h 5mph /  8km/h 95% 0.00in /  0mm 0 W/m2
04:44 48 °F /  8.9 °C 46.7 °F /  8.2 °C 29.73in /  1006.7hPa NNW 0.1mph /  0.2km/h 5mph /  8km/h 95% 0.00in /  0mm 0 W/m2
04:49 48.1 °F /  8.9 °C 46.7 °F /  8.2 °C 29.73in /  1006.7hPa NNW 0.3mph /  0.5km/h 6mph /  9.7km/h 95% 0.00in /  0mm 0 W/m2
04:54 48.1 °F /  8.9 °C 46.7 °F /  8.2 °C 29.73in /  1006.7hPa NNW 0.7mph /  1.1km/h 10mph /  16.1km/h 95% 0.00in /  0mm 0 W/m2
04:59 48.1 °F /  8.9 °C 46.7 °F /  8.2 °C 29.73in /  1006.7hPa NNW 0.3mph /  0.5km/h 10mph /  16.1km/h 95% 0.00in /  0mm 0 W/m2
05:04 48.1 °F /  8.9 °C 46.7 °F /  8.2 °C 29.72in /  1006.3hPa NNW 0.1mph /  0.2km/h 10mph /  16.1km/h 95% 0.00in /  0mm 0 W/m2
05:09 48.1 °F /  8.9 °C 46.7 °F /  8.2 °C 29.73in /  1006.7hPa NNW 0.2mph /  0.3km/h 3mph /  4.8km/h 95% 0.00in /  0mm 0 W/m2
05:14 48.1 °F /  8.9 °C 46.7 °F /  8.2 °C 29.73in /  1006.7hPa NNW 0.5mph /  0.8km/h 5mph /  8km/h 95% 0.00in /  0mm 0 W/m2
05:19 48.1 °F /  8.9 °C 46.7 °F /  8.2 °C 29.73in /  1006.7hPa NNW 0.7mph /  1.1km/h 6mph /  9.7km/h 95% 0.00in /  0mm 0 W/m2
05:24 48.1 °F /  8.9 °C 46.8 °F /  8.2 °C 29.73in /  1006.7hPa Calm   6mph /  9.7km/h 95% 0.00in /  0mm 0 W/m2
05:29 48.2 °F /  9 °C 46.8 °F /  8.2 °C 29.73in /  1006.7hPa NNE 0.2mph /  0.3km/h 6mph /  9.7km/h 95% 0.00in /  0mm 0 W/m2
05:34 48.2 °F /  9 °C 46.8 °F /  8.2 °C 29.72in /  1006.3hPa NNW 0.4mph /  0.6km/h 6mph /  9.7km/h 95% 0.00in /  0mm 0 W/m2
05:39 48.2 °F /  9 °C 46.8 °F /  8.2 °C 29.72in /  1006.3hPa Calm   6mph /  9.7km/h 95% 0.00in /  0mm 0 W/m2
05:44 48.2 °F /  9 °C 46.8 °F /  8.2 °C 29.72in /  1006.3hPa NE 0.2mph /  0.3km/h 6mph /  9.7km/h 95% 0.00in /  0mm 0 W/m2
05:49 48.2 °F /  9 °C 46.8 °F /  8.2 °C 29.72in /  1006.3hPa North 0.3mph /  0.5km/h 6mph /  9.7km/h 95% 0.01in /  0.25mm 0 W/m2
05:54 48.2 °F /  9 °C 46.8 °F /  8.2 °C 29.72in /  1006.3hPa North 0.5mph /  0.8km/h 7mph /  11.3km/h 95% 0.01in /  0.25mm 0 W/m2
05:59 48.3 °F /  9.1 °C 46.9 °F /  8.3 °C 29.72in /  1006.3hPa NW 0.3mph /  0.5km/h 7mph /  11.3km/h 95% 0.01in /  0.25mm 0 W/m2
06:04 48.3 °F /  9.1 °C 46.9 °F /  8.3 °C 29.72in /  1006.3hPa North 0.3mph /  0.5km/h 7mph /  11.3km/h 95% 0.01in /  0.25mm 0 W/m2
06:09 48.3 °F /  9.1 °C 47.2 °F /  8.4 °C 29.72in /  1006.3hPa NE 0.5mph /  0.8km/h 5mph /  8km/h 95.7% 0.01in /  0.25mm 0 W/m2
06:14 48.4 °F /  9.1 °C 47.3 °F /  8.5 °C 29.72in /  1006.3hPa Calm   5mph /  8km/h 96% 0.01in /  0.25mm 0 W/m2
06:19 48.5 °F /  9.2 °C 47.4 °F /  8.6 °C 29.71in /  1006hPa West 0.1mph /  0.2km/h 5mph /  8km/h 96% 0.01in /  0.25mm 0 W/m2
06:24 48.5 °F /  9.2 °C 47.4 °F /  8.6 °C 29.71in /  1006hPa North 0.1mph /  0.2km/h 5mph /  8km/h 96% 0.01in /  0.25mm 0 W/m2
06:29 48.5 °F /  9.2 °C 47.4 °F /  8.6 °C 29.71in /  1006hPa North 0.8mph /  1.3km/h 10mph /  16.1km/h 96% 0.01in /  0.25mm 0 W/m2
06:34 48.6 °F /  9.2 °C 47.5 °F /  8.6 °C 29.71in /  1006hPa NNW 0.2mph /  0.3km/h 10mph /  16.1km/h 96% 0.01in /  0.25mm 0 W/m2
06:39 48.6 °F /  9.2 °C 47.5 °F /  8.6 °C 29.71in /  1006hPa NW 0.2mph /  0.3km/h 9mph /  14.5km/h 96% 0.01in /  0.25mm 0 W/m2
06:44 48.7 °F /  9.3 °C 47.6 °F /  8.7 °C 29.70in /  1005.6hPa NNW 1.1mph /  1.8km/h 12mph /  19.3km/h 96% 0.02in /  0.51mm 0 W/m2
06:49 48.7 °F /  9.3 °C 47.6 °F /  8.7 °C 29.70in /  1005.6hPa NE 1.4mph /  2.3km/h 12mph /  19.3km/h 96% 0.02in /  0.51mm 0 W/m2
06:54 48.7 °F /  9.3 °C 47.6 °F /  8.7 °C 29.70in /  1005.6hPa NNW 0.8mph /  1.3km/h 12mph /  19.3km/h 96% 0.02in /  0.51mm 0 W/m2
06:59 48.7 °F /  9.3 °C 47.6 °F /  8.7 °C 29.69in /  1005.3hPa Calm   12mph /  19.3km/h 96% 0.02in /  0.51mm 0 W/m2
07:04 48.7 °F /  9.3 °C 47.7 °F /  8.7 °C 29.69in /  1005.3hPa NE 0.1mph /  0.2km/h 12mph /  19.3km/h 96% 0.02in /  0.51mm 0 W/m2
07:09 48.8 °F /  9.3 °C 47.7 °F /  8.7 °C 29.69in /  1005.3hPa NE 0.3mph /  0.5km/h 4mph /  6.4km/h 96% 0.01in /  0.25mm 0 W/m2
07:14 48.9 °F /  9.4 °C 47.8 °F /  8.8 °C 29.69in /  1005.3hPa NNE 0.1mph /  0.2km/h 4mph /  6.4km/h 96% 0.01in /  0.25mm 0 W/m2
07:19 48.9 °F /  9.4 °C 47.8 °F /  8.8 °C 29.69in /  1005.3hPa North 0.9mph /  1.4km/h 6mph /  9.7km/h 96% 0.01in /  0.25mm 0 W/m2
07:24 49 °F /  9.4 °C 47.9 °F /  8.8 °C 29.69in /  1005.3hPa NW 0.5mph /  0.8km/h 6mph /  9.7km/h 96% 0.01in /  0.25mm 0 W/m2
07:29 49 °F /  9.4 °C 47.9 °F /  8.8 °C 29.69in /  1005.3hPa NW 0.6mph /  1km/h 6mph /  9.7km/h 96% 0.01in /  0.25mm 0 W/m2
07:34 49.1 °F /  9.5 °C 48 °F /  8.9 °C 29.70in /  1005.6hPa NNW 0.8mph /  1.3km/h 6mph /  9.7km/h 96% 0.02in /  0.51mm 0 W/m2
07:39 49.1 °F /  9.5 °C 48 °F /  8.9 °C 29.70in /  1005.6hPa NNW 0.8mph /  1.3km/h 6mph /  9.7km/h 96% 0.02in /  0.51mm 0 W/m2
07:44 49.2 °F /  9.6 °C 48.1 °F /  8.9 °C 29.71in /  1006hPa WNW 0.1mph /  0.2km/h 6mph /  9.7km/h 96% 0.02in /  0.51mm 0 W/m2
07:49 49.2 °F /  9.6 °C 48.2 °F /  9 °C 29.71in /  1006hPa NW 0.3mph /  0.5km/h 6mph /  9.7km/h 96% 0.03in /  0.76mm 0 W/m2
07:54 49.3 °F /  9.6 °C 48.2 °F /  9 °C 29.71in /  1006hPa North 0.5mph /  0.8km/h 6mph /  9.7km/h 96% 0.03in /  0.76mm 0 W/m2
07:59 49.4 °F /  9.7 °C 48.3 °F /  9.1 °C 29.71in /  1006hPa Calm   6mph /  9.7km/h 96% 0.03in /  0.76mm 9 W/m2
08:09 49.6 °F /  9.8 °C 48.5 °F /  9.2 °C 29.70in /  1005.6hPa NW 0.6mph /  1km/h 4mph /  6.4km/h 96% 0.03in /  0.76mm 11 W/m2
08:14 49.6 °F /  9.8 °C 48.5 °F /  9.2 °C 29.70in /  1005.6hPa NW 1mph /  1.6km/h 10mph /  16.1km/h 96% 0.03in /  0.76mm 7 W/m2
08:19 49.7 °F /  9.8 °C 48.6 °F /  9.2 °C 29.70in /  1005.6hPa NW 0.5mph /  0.8km/h 10mph /  16.1km/h 96% 0.04in /  1.02mm 16 W/m2
08:24 49.7 °F /  9.8 °C 48.6 °F /  9.2 °C 29.71in /  1006hPa NW 0.7mph /  1.1km/h 10mph /  16.1km/h 96% 0.04in /  1.02mm 21 W/m2
08:29 49.8 °F /  9.9 °C 48.7 °F /  9.3 °C 29.71in /  1006hPa West 0.3mph /  0.5km/h 10mph /  16.1km/h 96% 0.04in /  1.02mm 16 W/m2
08:34 49.8 °F /  9.9 °C 48.7 °F /  9.3 °C 29.71in /  1006hPa Calm   10mph /  16.1km/h 96% 0.04in /  1.02mm 21 W/m2
08:39 49.9 °F /  9.9 °C 48.8 °F /  9.3 °C 29.71in /  1006hPa WNW 0.1mph /  0.2km/h 4mph /  6.4km/h 96% 0.03in /  0.76mm 21 W/m2
08:44 49.9 °F /  9.9 °C 48.8 °F /  9.3 °C 29.71in /  1006hPa Calm   4mph /  6.4km/h 96% 0.05in /  1.27mm 26 W/m2
08:49 50 °F /  10 °C 48.9 °F /  9.4 °C 29.72in /  1006.3hPa Calm   4mph /  6.4km/h 96% 0.05in /  1.27mm 26 W/m2
08:54 50.1 °F /  10.1 °C 49 °F /  9.4 °C 29.71in /  1006hPa Calm   4mph /  6.4km/h 96% 0.05in /  1.27mm 37 W/m2
08:59 50.2 °F /  10.1 °C 49.1 °F /  9.5 °C 29.71in /  1006hPa Calm   4mph /  6.4km/h 96% 0.05in /  1.27mm 95 W/m2
09:04 50.3 °F /  10.2 °C 49.2 °F /  9.6 °C 29.72in /  1006.3hPa Calm   4mph /  6.4km/h 96% 0.05in /  1.27mm 37 W/m2
09:09 50.4 °F /  10.2 °C 49.3 °F /  9.6 °C 29.73in /  1006.7hPa Calm   1mph /  1.6km/h 96% 0.02in /  0.51mm 40 W/m2
09:14 50.5 °F /  10.3 °C 49.4 °F /  9.7 °C 29.73in /  1006.7hPa Calm   1mph /  1.6km/h 96% 0.02in /  0.51mm 46 W/m2
09:19 50.6 °F /  10.3 °C 49.5 °F /  9.7 °C 29.73in /  1006.7hPa NW 0.1mph /  0.2km/h 2mph /  3.2km/h 96% 0.02in /  0.51mm 39 W/m2
09:24 50.8 °F /  10.4 °C 49.7 °F /  9.8 °C 29.71in /  1006hPa NW 0.1mph /  0.2km/h 2mph /  3.2km/h 96% 0.02in /  0.51mm 37 W/m2
09:29 50.8 °F /  10.4 °C 49.7 °F /  9.8 °C 29.70in /  1005.6hPa NNW 0.2mph /  0.3km/h 3mph /  4.8km/h 96% 0.03in /  0.76mm 60 W/m2
09:34 50.9 °F /  10.5 °C 49.8 °F /  9.9 °C 29.71in /  1006hPa NNW 0.2mph /  0.3km/h 3mph /  4.8km/h 96% 0.03in /  0.76mm 56 W/m2
09:39 51 °F /  10.6 °C 49.9 °F /  9.9 °C 29.71in /  1006hPa Calm   3mph /  4.8km/h 96% 0.03in /  0.76mm 58 W/m2
09:44 51.1 °F /  10.6 °C 50 °F /  10 °C 29.71in /  1006hPa ENE 0.4mph /  0.6km/h 5mph /  8km/h 96% 0.03in /  0.76mm 46 W/m2
09:49 51.2 °F /  10.7 °C 50.1 °F /  10.1 °C 29.72in /  1006.3hPa Calm   5mph /  8km/h 96% 0.03in /  0.76mm 49 W/m2
09:54 51.2 °F /  10.7 °C 50.1 °F /  10.1 °C 29.72in /  1006.3hPa NW 0.2mph /  0.3km/h 5mph /  8km/h 96% 0.03in /  0.76mm 54 W/m2
09:59 51.4 °F /  10.8 °C 50.3 °F /  10.2 °C 29.70in /  1005.6hPa Calm   5mph /  8km/h 96% 0.03in /  0.76mm 118 W/m2
10:04 51.6 °F /  10.9 °C 50.5 °F /  10.3 °C 29.68in /  1005hPa NNE 0.2mph /  0.3km/h 5mph /  8km/h 96% 0.03in /  0.76mm 163 W/m2
10:09 51.7 °F /  10.9 °C 50.6 °F /  10.3 °C 29.70in /  1005.6hPa Calm   4mph /  6.4km/h 96% 0.01in /  0.25mm 148 W/m2
10:14 51.8 °F /  11 °C 51 °F /  10.6 °C 29.71in /  1006hPa ENE 0.1mph /  0.2km/h 4mph /  6.4km/h 97% 0.01in /  0.25mm 47 W/m2
10:19 51.9 °F /  11.1 °C 51.1 °F /  10.6 °C 29.73in /  1006.7hPa Calm   4mph /  6.4km/h 97% 0.01in /  0.25mm 23 W/m2
10:24 52 °F /  11.1 °C 51.1 °F /  10.6 °C 29.74in /  1007hPa Calm   4mph /  6.4km/h 96.8% 0.01in /  0.25mm 33 W/m2
10:29 52.1 °F /  11.2 °C 51 °F /  10.6 °C 29.74in /  1007hPa Calm   4mph /  6.4km/h 96% 0.01in /  0.25mm 47 W/m2
10:34 52.2 °F /  11.2 °C 51.1 °F /  10.6 °C 29.74in /  1007hPa Calm   4mph /  6.4km/h 96% 0.01in /  0.25mm 51 W/m2
10:39 52.3 °F /  11.3 °C 51.2 °F /  10.7 °C 29.74in /  1007hPa Calm     96% 0.00in /  0mm 33 W/m2
10:44 52.4 °F /  11.3 °C 51.5 °F /  10.8 °C 29.73in /  1006.7hPa Calm     96.8% 0.00in /  0mm 49 W/m2
10:49 52.5 °F /  11.4 °C 51.7 °F /  10.9 °C 29.73in /  1006.7hPa Calm   2mph /  3.2km/h 97% 0.00in /  0mm 53 W/m2
10:54 52.6 °F /  11.4 °C 51.8 °F /  11 °C 29.73in /  1006.7hPa Calm   2mph /  3.2km/h 97% 0.00in /  0mm 47 W/m2
10:59 52.7 °F /  11.5 °C 51.8 °F /  11 °C 29.72in /  1006.3hPa Calm   2mph /  3.2km/h 96.9% 0.00in /  0mm 69 W/m2
11:04 52.7 °F /  11.5 °C 51.6 °F /  10.9 °C 29.72in /  1006.3hPa NNW 0.2mph /  0.3km/h 5mph /  8km/h 96% 0.00in /  0mm 69 W/m2
11:09 52.8 °F /  11.6 °C 51.7 °F /  10.9 °C 29.72in /  1006.3hPa North 0.2mph /  0.3km/h 5mph /  8km/h 96% 0.00in /  0mm 49 W/m2
11:14 52.8 °F /  11.6 °C 51.7 °F /  10.9 °C 29.72in /  1006.3hPa Calm   5mph /  8km/h 96% 0.00in /  0mm 53 W/m2
11:19 52.9 °F /  11.6 °C 51.8 °F /  11 °C 29.72in /  1006.3hPa Calm   5mph /  8km/h 96% 0.00in /  0mm 62 W/m2
11:24 53 °F /  11.7 °C 51.9 °F /  11.1 °C 29.71in /  1006hPa Calm   5mph /  8km/h 96.1% 0.00in /  0mm 67 W/m2
11:29 53.1 °F /  11.7 °C 52.2 °F /  11.2 °C 29.70in /  1005.6hPa NNW 0.4mph /  0.6km/h 5mph /  8km/h 97% 0.00in /  0mm 111 W/m2
11:34 53.3 °F /  11.8 °C 52.5 °F /  11.4 °C 29.69in /  1005.3hPa NNW 0.2mph /  0.3km/h 6mph /  9.7km/h 97% 0.00in /  0mm 111 W/m2
11:39 53.5 °F /  11.9 °C 52.7 °F /  11.5 °C 29.68in /  1005hPa NNW 0.1mph /  0.2km/h 6mph /  9.7km/h 97% 0.00in /  0mm 128 W/m2
11:44 53.7 °F /  12.1 °C 52.9 °F /  11.6 °C 29.67in /  1004.6hPa NNW 0.2mph /  0.3km/h 6mph /  9.7km/h 97% 0.00in /  0mm 109 W/m2
11:49 53.9 °F /  12.2 °C 53.1 °F /  11.7 °C 29.67in /  1004.6hPa North 0.1mph /  0.2km/h 6mph /  9.7km/h 97% 0.00in /  0mm 139 W/m2
11:54 54.1 °F /  12.3 °C 53.2 °F /  11.8 °C 29.66in /  1004.3hPa NNE 0.2mph /  0.3km/h 6mph /  9.7km/h 97% 0.00in /  0mm 153 W/m2
11:59 54.2 °F /  12.3 °C 53.4 °F /  11.9 °C 29.66in /  1004.3hPa Calm   6mph /  9.7km/h 97% 0.00in /  0mm 113 W/m2
12:00 54.3 °F /  12.4 °C 53.5 °F /  11.9 °C 29.66in /  1004.3hPa Calm   6mph /  9.7km/h 97% 0.00in /  0mm 111 W/m2
12:09 54.6 °F /  12.6 °C 53.7 °F /  12.1 °C 29.66in /  1004.3hPa NNW 0.1mph /  0.2km/h 2mph /  3.2km/h 97% 0.00in /  0mm 156 W/m2
12:14 54.8 °F /  12.7 °C 54 °F /  12.2 °C 29.65in /  1003.9hPa Calm   2mph /  3.2km/h 97% 0.00in /  0mm 113 W/m2
12:19 55 °F /  12.8 °C 54.2 °F /  12.3 °C 29.66in /  1004.3hPa Calm   2mph /  3.2km/h 97% 0.00in /  0mm 100 W/m2
12:24 55.1 °F /  12.8 °C 54.3 °F /  12.4 °C 29.66in /  1004.3hPa Calm   2mph /  3.2km/h 97% 0.00in /  0mm 69 W/m2
12:29 55.2 °F /  12.9 °C 54.4 °F /  12.4 °C 29.67in /  1004.6hPa Calm   2mph /  3.2km/h 97% 0.00in /  0mm 54 W/m2
12:34 55.2 °F /  12.9 °C 54.4 °F /  12.4 °C 29.68in /  1005hPa Calm   2mph /  3.2km/h 97% 0.00in /  0mm 37 W/m2
12:38 55.2 °F /  12.9 °C 54.4 °F /  12.4 °C 29.68in /  1005hPa Calm     97% 0.01in /  0.25mm 46 W/m2
12:44 55.2 °F /  12.9 °C 54.4 °F /  12.4 °C 29.68in /  1005hPa Calm     97% 0.02in /  0.51mm 104 W/m2
12:49 55.4 °F /  13 °C 54.6 °F /  12.6 °C 29.67in /  1004.6hPa Calm     97% 0.02in /  0.51mm 125 W/m2
12:54 55.6 °F /  13.1 °C 54.7 °F /  12.6 °C 29.67in /  1004.6hPa Calm     97% 0.03in /  0.76mm 105 W/m2
12:59 55.7 °F /  13.2 °C 54.9 °F /  12.7 °C 29.67in /  1004.6hPa Calm     97% 0.03in /  0.76mm 77 W/m2
13:04 55.7 °F /  13.2 °C 54.9 °F /  12.7 °C 29.68in /  1005hPa Calm     97% 0.03in /  0.76mm 40 W/m2
13:09 55.7 °F /  13.2 °C 54.9 °F /  12.7 °C 29.69in /  1005.3hPa Calm     97% 0.04in /  1.02mm 28 W/m2
13:14 55.7 °F /  13.2 °C 54.9 °F /  12.7 °C 29.69in /  1005.3hPa North 0.1mph /  0.2km/h 2mph /  3.2km/h 97% 0.05in /  1.27mm 56 W/m2
13:19 55.8 °F /  13.2 °C 55 °F /  12.8 °C 29.68in /  1005hPa Calm   2mph /  3.2km/h 97% 0.06in /  1.52mm 76 W/m2
13:24 55.8 °F /  13.2 °C 55 °F /  12.8 °C 29.67in /  1004.6hPa Calm   2mph /  3.2km/h 97% 0.06in /  1.52mm 90 W/m2
13:29 55.9 °F /  13.3 °C 55 °F /  12.8 °C 29.67in /  1004.6hPa Calm   2mph /  3.2km/h 97% 0.07in /  1.78mm 100 W/m2
13:34 55.9 °F /  13.3 °C 55.1 °F /  12.8 °C 29.66in /  1004.3hPa Calm   2mph /  3.2km/h 97% 0.07in /  1.78mm 113 W/m2
13:39 56.2 °F /  13.4 °C 55.3 °F /  12.9 °C 29.66in /  1004.3hPa Calm     97% 0.08in /  2.03mm 69 W/m2
13:44 56.4 °F /  13.6 °C 55.5 °F /  13.1 °C 29.66in /  1004.3hPa Calm     97% 0.08in /  2.03mm 30 W/m2
13:48 56.5 °F /  13.6 °C 55.7 °F /  13.2 °C 29.66in /  1004.3hPa Calm     97% 0.08in /  2.03mm 47 W/m2
13:54 56.6 °F /  13.7 °C 55.7 °F /  13.2 °C 29.65in /  1003.9hPa Calm     97% 0.08in /  2.03mm 63 W/m2
13:59 56.6 °F /  13.7 °C 55.8 °F /  13.2 °C 29.65in /  1003.9hPa Calm     97% 0.09in /  2.29mm 67 W/m2
14:04 56.7 °F /  13.7 °C 55.9 °F /  13.3 °C 29.66in /  1004.3hPa Calm     97% 0.09in /  2.29mm 40 W/m2
14:09 56.7 °F /  13.7 °C 55.9 °F /  13.3 °C 29.66in /  1004.3hPa Calm     97% 0.07in /  1.78mm 65 W/m2
14:14 56.8 °F /  13.8 °C 55.9 °F /  13.3 °C 29.66in /  1004.3hPa Calm     97% 0.08in /  2.03mm 65 W/m2
14:19 56.8 °F /  13.8 °C 56 °F /  13.3 °C 29.66in /  1004.3hPa Calm     97% 0.09in /  2.29mm 51 W/m2
14:24 56.9 °F /  13.8 °C 56.1 °F /  13.4 °C 29.66in /  1004.3hPa Calm     97% 0.09in /  2.29mm 54 W/m2
14:29 57 °F /  13.9 °C 56.2 °F /  13.4 °C 29.66in /  1004.3hPa Calm     97% 0.10in /  2.54mm 44 W/m2
14:34 57.1 °F /  13.9 °C 56.3 °F /  13.5 °C 29.66in /  1004.3hPa Calm     97% 0.10in /  2.54mm 39 W/m2
14:39 57.2 °F /  14 °C 56.3 °F /  13.5 °C 29.65in /  1003.9hPa Calm     97% 0.07in /  1.78mm 60 W/m2
14:44 57.2 °F /  14 °C 56.4 °F /  13.6 °C 29.64in /  1003.6hPa Calm     97% 0.08in /  2.03mm 54 W/m2
14:49 57.3 °F /  14.1 °C 56.5 °F /  13.6 °C 29.64in /  1003.6hPa Calm     97% 0.09in /  2.29mm 42 W/m2
14:54 57.3 °F /  14.1 °C 56.5 °F /  13.6 °C 29.64in /  1003.6hPa Calm     97% 0.09in /  2.29mm 51 W/m2
14:59 57.4 °F /  14.1 °C 56.6 °F /  13.7 °C 29.66in /  1004.3hPa Calm     97% 0.10in /  2.54mm 42 W/m2
15:04 57.4 °F /  14.1 °C 56.6 °F /  13.7 °C 29.66in /  1004.3hPa Calm     97% 0.10in /  2.54mm 26 W/m2
15:09 57.5 °F /  14.2 °C 56.7 °F /  13.7 °C 29.66in /  1004.3hPa Calm     97% 0.09in /  2.29mm 30 W/m2
15:14 57.6 °F /  14.2 °C 56.8 °F /  13.8 °C 29.66in /  1004.3hPa Calm     97% 0.10in /  2.54mm 28 W/m2
15:19 57.6 °F /  14.2 °C 56.8 °F /  13.8 °C 29.65in /  1003.9hPa Calm   1mph /  1.6km/h 97% 0.12in /  3.05mm 21 W/m2
15:24 57.6 °F /  14.2 °C 56.8 °F /  13.8 °C 29.64in /  1003.6hPa ESE 0.1mph /  0.2km/h 4mph /  6.4km/h 97% 0.13in /  3.3mm 63 W/m2
15:29 57.5 °F /  14.2 °C 56.7 °F /  13.7 °C 29.65in /  1003.9hPa Calm   4mph /  6.4km/h 97% 0.14in /  3.56mm 63 W/m2
15:34 57.5 °F /  14.2 °C 56.7 °F /  13.7 °C 29.65in /  1003.9hPa Calm   4mph /  6.4km/h 97% 0.14in /  3.56mm 28 W/m2
15:39 57.5 °F /  14.2 °C 56.7 °F /  13.7 °C 29.65in /  1003.9hPa Calm     97% 0.12in /  3.05mm 30 W/m2
15:44 57.5 °F /  14.2 °C 56.6 °F /  13.7 °C 29.65in /  1003.9hPa ENE 0.1mph /  0.2km/h 2mph /  3.2km/h 97% 0.13in /  3.3mm 40 W/m2
15:49 57.3 °F /  14.1 °C 56.5 °F /  13.6 °C 29.65in /  1003.9hPa Calm   2mph /  3.2km/h 97% 0.14in /  3.56mm 32 W/m2
15:54 57.2 °F /  14 °C 56.3 °F /  13.5 °C 29.65in /  1003.9hPa Calm   2mph /  3.2km/h 97% 0.15in /  3.81mm 26 W/m2
15:59 57.1 °F /  13.9 °C 56.2 °F /  13.4 °C 29.65in /  1003.9hPa Calm   2mph /  3.2km/h 97% 0.15in /  3.81mm 30 W/m2
16:00 57 °F /  13.9 °C 56.2 °F /  13.4 °C 29.65in /  1003.9hPa Calm   2mph /  3.2km/h 97% 0.15in /  3.81mm 26 W/m2
16:09 57 °F /  13.9 °C 56.2 °F /  13.4 °C 29.66in /  1004.3hPa Calm     97% 0.18in /  4.57mm 37 W/m2
16:14 57 °F /  13.9 °C 56.2 °F /  13.4 °C 29.66in /  1004.3hPa Calm     97% 0.20in /  5.08mm 33 W/m2
16:19 57.1 °F /  13.9 °C 56.3 °F /  13.5 °C 29.66in /  1004.3hPa Calm     97% 0.22in /  5.59mm 18 W/m2
16:24 57.2 °F /  14 °C 56.3 °F /  13.5 °C 29.66in /  1004.3hPa Calm     97% 0.23in /  5.84mm 16 W/m2
16:29 57.2 °F /  14 °C 56.4 °F /  13.6 °C 29.66in /  1004.3hPa Calm     97% 0.24in /  6.1mm 16 W/m2
16:34 57.2 °F /  14 °C 56.4 °F /  13.6 °C 29.65in /  1003.9hPa Calm     97% 0.24in /  6.1mm 18 W/m2
16:39 57.2 °F /  14 °C 56.4 °F /  13.6 °C 29.65in /  1003.9hPa Calm     97% 0.15in /  3.81mm 32 W/m2
16:44 57.2 °F /  14 °C 56.4 °F /  13.6 °C 29.65in /  1003.9hPa Calm     97% 0.15in /  3.81mm 33 W/m2
16:49 57.3 °F /  14.1 °C 56.4 °F /  13.6 °C 29.65in /  1003.9hPa Calm     97% 0.16in /  4.06mm 11 W/m2
16:54 57.2 °F /  14 °C 56.4 °F /  13.6 °C 29.65in /  1003.9hPa Calm     97% 0.16in /  4.06mm 5 W/m2
16:59 57.2 °F /  14 °C 56.4 °F /  13.6 °C 29.65in /  1003.9hPa Calm     97% 0.16in /  4.06mm 0 W/m2
17:04 57.2 °F /  14 °C 56.4 °F /  13.6 °C 29.65in /  1003.9hPa Calm     97% 0.16in /  4.06mm 0 W/m2
17:09 57.2 °F /  14 °C 56.4 °F /  13.6 °C 29.65in /  1003.9hPa Calm     97% 0.03in /  0.76mm 0 W/m2
17:14 57.2 °F /  14 °C 56.3 °F /  13.5 °C 29.64in /  1003.6hPa Calm     97% 0.03in /  0.76mm 5 W/m2
17:19 57.1 °F /  13.9 °C 56.3 °F /  13.5 °C 29.64in /  1003.6hPa Calm     97% 0.03in /  0.76mm 5 W/m2
17:24 57.1 °F /  13.9 °C 56.3 °F /  13.5 °C 29.64in /  1003.6hPa Calm     97% 0.03in /  0.76mm 0 W/m2
17:29 57.1 °F /  13.9 °C 56.3 °F /  13.5 °C 29.64in /  1003.6hPa Calm     97% 0.03in /  0.76mm 0 W/m2
17:34 57.1 °F /  13.9 °C 56.3 °F /  13.5 °C 29.64in /  1003.6hPa Calm     97% 0.03in /  0.76mm 0 W/m2
17:39 57.1 °F /  13.9 °C 56.3 °F /  13.5 °C 29.64in /  1003.6hPa Calm     97% 0.03in /  0.76mm 0 W/m2
17:44 57 °F /  13.9 °C 56.2 °F /  13.4 °C 29.63in /  1003.3hPa Calm     97% 0.03in /  0.76mm 0 W/m2
17:49 57 °F /  13.9 °C 56.2 °F /  13.4 °C 29.63in /  1003.3hPa Calm     97% 0.03in /  0.76mm 0 W/m2
17:54 57 °F /  13.9 °C 56.1 °F /  13.4 °C 29.63in /  1003.3hPa Calm     97% 0.04in /  1.02mm 0 W/m2
17:59 56.9 °F /  13.8 °C 56.1 °F /  13.4 °C 29.64in /  1003.6hPa Calm     97% 0.04in /  1.02mm 0 W/m2
18:04 56.9 °F /  13.8 °C 56.1 °F /  13.4 °C 29.64in /  1003.6hPa Calm     97% 0.04in /  1.02mm 0 W/m2
18:09 56.9 °F /  13.8 °C 56.1 °F /  13.4 °C 29.64in /  1003.6hPa Calm     97% 0.05in /  1.27mm 0 W/m2
18:14 56.9 °F /  13.8 °C 56.1 °F /  13.4 °C 29.64in /  1003.6hPa Calm     97% 0.06in /  1.52mm 0 W/m2
18:19 56.9 °F /  13.8 °C 56.1 °F /  13.4 °C 29.64in /  1003.6hPa Calm     97% 0.07in /  1.78mm 0 W/m2
18:24 56.9 °F /  13.8 °C 56.1 °F /  13.4 °C 29.63in /  1003.3hPa Calm     97% 0.07in /  1.78mm 0 W/m2
18:29 56.9 °F /  13.8 °C 56.1 °F /  13.4 °C 29.63in /  1003.3hPa Calm     97% 0.07in /  1.78mm 0 W/m2
18:34 56.9 °F /  13.8 °C 56.1 °F /  13.4 °C 29.62in /  1002.9hPa Calm     97% 0.07in /  1.78mm 0 W/m2
18:39 56.9 °F /  13.8 °C 56.1 °F /  13.4 °C 29.61in /  1002.6hPa Calm     97% 0.06in /  1.52mm 0 W/m2
18:44 56.9 °F /  13.8 °C 56.1 °F /  13.4 °C 29.61in /  1002.6hPa Calm     97% 0.06in /  1.52mm 0 W/m2
18:49 57 °F /  13.9 °C 56.1 °F /  13.4 °C 29.61in /  1002.6hPa ENE 0.1mph /  0.2km/h 3mph /  4.8km/h 97% 0.06in /  1.52mm 0 W/m2
18:54 57.1 °F /  13.9 °C 56.2 °F /  13.4 °C 29.60in /  1002.3hPa Calm   3mph /  4.8km/h 97% 0.06in /  1.52mm 0 W/m2
18:59 57.1 °F /  13.9 °C 56.3 °F /  13.5 °C 29.60in /  1002.3hPa Calm   3mph /  4.8km/h 97% 0.06in /  1.52mm 0 W/m2
19:04 57.2 °F /  14 °C 56.4 °F /  13.6 °C 29.60in /  1002.3hPa Calm   3mph /  4.8km/h 97% 0.06in /  1.52mm 0 W/m2
19:09 57.2 °F /  14 °C 56.4 °F /  13.6 °C 29.60in /  1002.3hPa ENE 0.1mph /  0.2km/h 2mph /  3.2km/h 97% 0.05in /  1.27mm 0 W/m2
19:14 57.3 °F /  14.1 °C 56.4 °F /  13.6 °C 29.60in /  1002.3hPa Calm   2mph /  3.2km/h 97% 0.05in /  1.27mm 0 W/m2
19:19 57.3 °F /  14.1 °C 56.5 °F /  13.6 °C 29.60in /  1002.3hPa Calm   2mph /  3.2km/h 97% 0.05in /  1.27mm 0 W/m2
19:24 57.3 °F /  14.1 °C 56.5 °F /  13.6 °C 29.60in /  1002.3hPa Calm   2mph /  3.2km/h 97% 0.05in /  1.27mm 0 W/m2
19:29 57.4 °F /  14.1 °C 56.5 °F /  13.6 °C 29.60in /  1002.3hPa Calm   2mph /  3.2km/h 97% 0.05in /  1.27mm 0 W/m2
19:34 57.5 °F /  14.2 °C 56.6 °F /  13.7 °C 29.59in /  1001.9hPa ENE 0.1mph /  0.2km/h 3mph /  4.8km/h 97% 0.05in /  1.27mm 0 W/m2
19:39 57.5 °F /  14.2 °C 56.7 °F /  13.7 °C 29.59in /  1001.9hPa ENE 1.3mph /  2.1km/h 5mph /  8km/h 97% 0.00in /  0mm 0 W/m2
19:44 57.6 °F /  14.2 °C 56.8 °F /  13.8 °C 29.59in /  1001.9hPa ENE 0.4mph /  0.6km/h 5mph /  8km/h 97% 0.01in /  0.25mm 0 W/m2
19:49 57.6 °F /  14.2 °C 56.8 °F /  13.8 °C 29.58in /  1001.6hPa ENE 0.7mph /  1.1km/h 5mph /  8km/h 97% 0.01in /  0.25mm 0 W/m2
19:54 57.7 °F /  14.3 °C 56.9 °F /  13.8 °C 29.58in /  1001.6hPa Calm   5mph /  8km/h 97% 0.01in /  0.25mm 0 W/m2
19:59 57.7 °F /  14.3 °C 56.9 °F /  13.8 °C 29.59in /  1001.9hPa Calm   5mph /  8km/h 97% 0.01in /  0.25mm 0 W/m2
20:00 57.7 °F /  14.3 °C 56.9 °F /  13.8 °C 29.58in /  1001.6hPa Calm   5mph /  8km/h 97% 0.01in /  0.25mm 0 W/m2
20:09 57.8 °F /  14.3 °C 57 °F /  13.9 °C 29.59in /  1001.9hPa Calm     97% 0.01in /  0.25mm 0 W/m2
20:14 57.8 °F /  14.3 °C 57 °F /  13.9 °C 29.59in /  1001.9hPa Calm     97% 0.01in /  0.25mm 0 W/m2
20:19 57.9 °F /  14.4 °C 57 °F /  13.9 °C 29.59in /  1001.9hPa ENE 0.1mph /  0.2km/h 1mph /  1.6km/h 97% 0.01in /  0.25mm 0 W/m2
20:24 58.1 °F /  14.5 °C 57.3 °F /  14.1 °C 29.59in /  1001.9hPa Calm   1mph /  1.6km/h 97% 0.01in /  0.25mm 0 W/m2
20:29 58.5 °F /  14.7 °C 57.6 °F /  14.2 °C 29.59in /  1001.9hPa Calm   1mph /  1.6km/h 97% 0.01in /  0.25mm 0 W/m2
20:34 58.7 °F /  14.8 °C 57.9 °F /  14.4 °C 29.59in /  1001.9hPa ENE 0.2mph /  0.3km/h 3mph /  4.8km/h 97% 0.01in /  0.25mm 0 W/m2
20:39 58.8 °F /  14.9 °C 58 °F /  14.4 °C 29.59in /  1001.9hPa Calm   3mph /  4.8km/h 97% 0.01in /  0.25mm 0 W/m2
20:44 58.9 °F /  14.9 °C 58 °F /  14.4 °C 29.59in /  1001.9hPa Calm   3mph /  4.8km/h 97% 0.01in /  0.25mm 0 W/m2
20:49 59 °F /  15 °C 58.1 °F /  14.5 °C 29.58in /  1001.6hPa Calm   3mph /  4.8km/h 97% 0.01in /  0.25mm 0 W/m2
20:54 59.1 °F /  15.1 °C 58.2 °F /  14.6 °C 29.58in /  1001.6hPa Calm   3mph /  4.8km/h 97% 0.01in /  0.25mm 0 W/m2
20:59 59 °F /  15 °C 58.2 °F /  14.6 °C 29.57in /  1001.2hPa Calm   3mph /  4.8km/h 97% 0.01in /  0.25mm 0 W/m2
21:04 58.8 °F /  14.9 °C 58 °F /  14.4 °C 29.57in /  1001.2hPa Calm   3mph /  4.8km/h 97% 0.01in /  0.25mm 0 W/m2
21:09 58.6 °F /  14.8 °C 57.8 °F /  14.3 °C 29.57in /  1001.2hPa Calm     97% 0.00in /  0mm 0 W/m2
21:14 58.5 °F /  14.7 °C 57.7 °F /  14.3 °C 29.56in /  1000.9hPa Calm     97% 0.00in /  0mm 0 W/m2
21:19 58.4 °F /  14.7 °C 57.6 °F /  14.2 °C 29.55in /  1000.6hPa ENE 0.1mph /  0.2km/h 2mph /  3.2km/h 97% 0.00in /  0mm 0 W/m2
21:24 58.4 °F /  14.7 °C 57.6 °F /  14.2 °C 29.56in /  1000.9hPa Calm   2mph /  3.2km/h 97% 0.00in /  0mm 0 W/m2
21:29 58.4 °F /  14.7 °C 57.6 °F /  14.2 °C 29.56in /  1000.9hPa Calm   2mph /  3.2km/h 97% 0.00in /  0mm 0 W/m2
21:34 58.5 °F /  14.7 °C 57.7 °F /  14.3 °C 29.57in /  1001.2hPa Calm   2mph /  3.2km/h 97% 0.00in /  0mm 0 W/m2
21:39 58.5 °F /  14.7 °C 57.7 °F /  14.3 °C 29.57in /  1001.2hPa NE 0.1mph /  0.2km/h 1mph /  1.6km/h 97% 0.00in /  0mm 0 W/m2
21:44 58.5 °F /  14.7 °C 57.7 °F /  14.3 °C 29.57in /  1001.2hPa Calm   1mph /  1.6km/h 97% 0.00in /  0mm 0 W/m2
21:49 58.5 °F /  14.7 °C 57.6 °F /  14.2 °C 29.57in /  1001.2hPa Calm   1mph /  1.6km/h 97% 0.00in /  0mm 0 W/m2
21:54 58.4 °F /  14.7 °C 57.6 °F /  14.2 °C 29.57in /  1001.2hPa NE 0.2mph /  0.3km/h 4mph /  6.4km/h 97% 0.00in /  0mm 0 W/m2
21:59 58.4 °F /  14.7 °C 57.6 °F /  14.2 °C 29.57in /  1001.2hPa Calm   4mph /  6.4km/h 97% 0.00in /  0mm 0 W/m2
22:04 58.3 °F /  14.6 °C 57.5 °F /  14.2 °C 29.56in /  1000.9hPa NE 0.1mph /  0.2km/h 4mph /  6.4km/h 97% 0.00in /  0mm 0 W/m2
22:09 58.3 °F /  14.6 °C 57.5 °F /  14.2 °C 29.56in /  1000.9hPa NE 0.4mph /  0.6km/h 4mph /  6.4km/h 97% 0.00in /  0mm 0 W/m2
22:14 58.2 °F /  14.6 °C 57.4 °F /  14.1 °C 29.56in /  1000.9hPa North 0.9mph /  1.4km/h 5mph /  8km/h 97% 0.00in /  0mm 0 W/m2
22:19 58.2 °F /  14.6 °C 57.4 °F /  14.1 °C 29.55in /  1000.6hPa NW 0.5mph /  0.8km/h 5mph /  8km/h 97% 0.00in /  0mm 0 W/m2
22:24 58.2 °F /  14.6 °C 57.3 °F /  14.1 °C 29.55in /  1000.6hPa NW 0.4mph /  0.6km/h 5mph /  8km/h 97% 0.00in /  0mm 0 W/m2
22:29 58.1 °F /  14.5 °C 57.3 °F /  14.1 °C 29.54in /  1000.2hPa NW 0.2mph /  0.3km/h 5mph /  8km/h 97% 0.00in /  0mm 0 W/m2
22:34 58.1 °F /  14.5 °C 57.3 °F /  14.1 °C 29.53in /  999.9hPa NNW 1.3mph /  2.1km/h 5mph /  8km/h 97% 0.00in /  0mm 0 W/m2
22:39 58.1 °F /  14.5 °C 57.2 °F /  14 °C 29.53in /  999.9hPa NNW 0.5mph /  0.8km/h 5mph /  8km/h 97% 0.00in /  0mm 0 W/m2
22:44 58.2 °F /  14.6 °C 57.3 °F /  14.1 °C 29.53in /  999.9hPa NW 0.2mph /  0.3km/h 6mph /  9.7km/h 97% 0.00in /  0mm 0 W/m2
22:49 58.2 °F /  14.6 °C 57.4 °F /  14.1 °C 29.52in /  999.5hPa Calm   6mph /  9.7km/h 97% 0.01in /  0.25mm 0 W/m2
22:54 58.2 °F /  14.6 °C 57.4 °F /  14.1 °C 29.52in /  999.5hPa NW 0.8mph /  1.3km/h 6mph /  9.7km/h 97% 0.01in /  0.25mm 0 W/m2
22:59 58.2 °F /  14.6 °C 57.4 °F /  14.1 °C 29.52in /  999.5hPa Calm   6mph /  9.7km/h 97% 0.01in /  0.25mm 0 W/m2
23:04 58.3 °F /  14.6 °C 57.4 °F /  14.1 °C 29.52in /  999.5hPa NW 1.2mph /  1.9km/h 7mph /  11.3km/h 97% 0.01in /  0.25mm 0 W/m2
23:09 58.2 °F /  14.6 °C 57.4 °F /  14.1 °C 29.52in /  999.5hPa NW 0.2mph /  0.3km/h 7mph /  11.3km/h 97% 0.01in /  0.25mm 0 W/m2
23:14 58.2 °F /  14.6 °C 57.4 °F /  14.1 °C 29.52in /  999.5hPa NW 0.2mph /  0.3km/h 7mph /  11.3km/h 97% 0.01in /  0.25mm 0 W/m2
23:19 58.1 °F /  14.5 °C 57.3 °F /  14.1 °C 29.51in /  999.2hPa NW 0.1mph /  0.2km/h 7mph /  11.3km/h 97% 0.01in /  0.25mm 0 W/m2
23:24 58 °F /  14.4 °C 57.2 °F /  14 °C 29.51in /  999.2hPa NW 0.1mph /  0.2km/h 7mph /  11.3km/h 97% 0.01in /  0.25mm 0 W/m2
23:29 57.9 °F /  14.4 °C 57.1 °F /  13.9 °C 29.51in /  999.2hPa Calm   7mph /  11.3km/h 97% 0.01in /  0.25mm 0 W/m2
23:34 57.8 °F /  14.3 °C 57 °F /  13.9 °C 29.51in /  999.2hPa Calm   7mph /  11.3km/h 97% 0.01in /  0.25mm 0 W/m2
23:39 57.8 °F /  14.3 °C 57 °F /  13.9 °C 29.51in /  999.2hPa Calm   2mph /  3.2km/h 97% 0.01in /  0.25mm 0 W/m2
23:44 57.7 °F /  14.3 °C 56.9 °F /  13.8 °C 29.51in /  999.2hPa NW 0.3mph /  0.5km/h 3mph /  4.8km/h 97% 0.01in /  0.25mm 0 W/m2
23:49 57.7 °F /  14.3 °C 56.8 °F /  13.8 °C 29.51in /  999.2hPa Calm   3mph /  4.8km/h 97% 0.01in /  0.25mm 0 W/m2
23:54 57.6 °F /  14.2 °C 56.8 °F /  13.8 °C 29.50in /  998.9hPa NW 1mph /  1.6km/h 5mph /  8km/h 97% 0.01in /  0.25mm 0 W/m2
23:59 57.5 °F /  14.2 °C 56.7 °F /  13.7 °C 29.50in /  998.9hPa NNW 0.7mph /  1.1km/h 6mph /  9.7km/h 97% 0.01in /  0.25mm 0 W/m2
Hartford County Weather
Compliments of Weather Underground - 2 mb